createdAt,value
2022-11-18T00:00:05.706Z,98.79
2022-11-18T00:01:05.691Z,99.05
2022-11-18T00:02:05.749Z,99.31
2022-11-18T00:03:05.721Z,99.00
2022-11-18T00:04:05.691Z,99.46
2022-11-18T00:05:05.688Z,99.41
2022-11-18T00:06:05.765Z,99.66
2022-11-18T00:07:05.712Z,99.56
2022-11-18T00:08:05.714Z,99.56
2022-11-18T00:09:05.667Z,99.99
2022-11-18T00:10:05.692Z,99.66
2022-11-18T00:11:05.649Z,99.99
2022-11-18T00:12:05.685Z,99.87
2022-11-18T00:13:05.642Z,99.56
2022-11-18T00:14:05.653Z,99.72
2022-11-18T00:15:05.624Z,99.51
2022-11-18T00:16:05.661Z,99.31
2022-11-18T00:17:05.630Z,99.21
2022-11-18T00:18:05.604Z,99.31
2022-11-18T00:19:06.627Z,98.96
2022-11-18T00:20:05.599Z,98.85
2022-11-18T00:21:05.594Z,98.65
2022-11-18T00:22:05.614Z,98.75
2022-11-18T00:23:05.595Z,98.65
2022-11-18T00:24:05.627Z,99.05
2022-11-18T00:25:05.592Z,98.70
2022-11-18T00:26:05.606Z,98.50
2022-11-18T00:27:05.685Z,98.24
2022-11-18T00:28:05.563Z,98.29
2022-11-18T00:29:05.559Z,97.88
2022-11-18T00:30:05.599Z,97.78
2022-11-18T00:31:05.567Z,97.67
2022-11-18T00:32:05.558Z,97.99
2022-11-18T00:33:05.566Z,98.39
2022-11-18T00:34:05.541Z,96.95
2022-11-18T00:35:05.599Z,97.00
2022-11-18T00:36:05.559Z,96.73
2022-11-18T00:37:05.575Z,96.59
2022-11-18T00:38:05.554Z,97.25
2022-11-18T00:39:05.532Z,97.20
2022-11-18T00:40:05.529Z,97.20
2022-11-18T00:41:05.547Z,97.05
2022-11-18T00:42:05.588Z,97.36
2022-11-18T00:43:05.517Z,97.71
2022-11-18T00:44:09.421Z,98.84
2022-11-18T00:45:06.496Z,98.53
2022-11-18T00:46:05.534Z,98.58
2022-11-18T00:47:05.489Z,99.46
2022-11-18T00:48:05.494Z,99.05
2022-11-18T00:49:05.547Z,99.05
2022-11-18T00:50:05.479Z,99.05
2022-11-18T00:51:05.461Z,99.99
2022-11-18T00:52:05.458Z,98.84
2022-11-18T00:53:05.466Z,99.05
2022-11-18T00:54:05.465Z,98.43
2022-11-18T00:55:05.440Z,98.63
2022-11-18T00:56:05.448Z,98.79
2022-11-18T00:57:05.447Z,98.79
2022-11-18T00:58:05.453Z,99.05
2022-11-18T00:59:05.432Z,99.19
2022-11-18T01:00:05.431Z,98.68
2022-11-18T01:01:05.479Z,99.81
2022-11-18T01:02:05.424Z,99.99
2022-11-18T01:03:05.571Z,99.99
2022-11-18T01:04:05.427Z,99.99
2022-11-18T01:05:05.405Z,99.99
2022-11-18T01:06:05.394Z,99.99
2022-11-18T01:07:05.431Z,99.99
2022-11-18T01:08:05.378Z,99.99
2022-11-18T01:09:05.406Z,99.99
2022-11-18T01:10:05.386Z,99.99
2022-11-18T01:11:05.373Z,99.99
2022-11-18T01:12:05.351Z,99.99
2022-11-18T01:13:05.348Z,99.99
2022-11-18T01:14:05.389Z,99.97
2022-11-18T01:15:05.424Z,99.99
2022-11-18T01:16:05.358Z,99.99
2022-11-18T01:17:05.334Z,99.99
2022-11-18T01:18:05.324Z,99.99
2022-11-18T01:19:05.337Z,99.99
2022-11-18T01:20:05.438Z,99.99
2022-11-18T01:21:05.337Z,99.99
2022-11-18T01:22:05.386Z,99.99
2022-11-18T01:23:05.309Z,99.99
2022-11-18T01:24:06.321Z,99.99
2022-11-18T01:25:05.344Z,99.99
2022-11-18T01:26:05.292Z,99.99
2022-11-18T01:27:05.296Z,99.99
2022-11-18T01:28:05.314Z,99.99
2022-11-18T01:29:05.294Z,99.99
2022-11-18T01:30:05.319Z,99.99
2022-11-18T01:31:05.319Z,99.99
2022-11-18T01:33:07.285Z,99.99
2022-11-18T01:34:05.279Z,99.98
2022-11-18T01:35:05.265Z,99.57
2022-11-18T01:36:05.331Z,99.16
2022-11-18T01:37:05.266Z,99.47
2022-11-18T01:38:05.243Z,98.85
2022-11-18T01:39:05.244Z,99.16
2022-11-18T01:40:05.242Z,98.33
2022-11-18T01:41:05.262Z,98.75
2022-11-18T01:42:05.262Z,98.70
2022-11-18T01:43:05.211Z,97.72
2022-11-18T01:44:05.212Z,98.03
2022-11-18T01:45:05.395Z,98.24
2022-11-18T01:46:05.223Z,98.03
2022-11-18T01:47:05.222Z,97.62
2022-11-18T01:48:05.215Z,97.82
2022-11-18T01:49:05.229Z,98.03
2022-11-18T01:50:05.187Z,97.99
2022-11-18T01:51:05.186Z,97.41
2022-11-18T01:52:05.218Z,97.72
2022-11-18T01:53:05.214Z,97.82
2022-11-18T01:54:05.168Z,97.56
2022-11-18T01:55:05.226Z,97.45
2022-11-18T01:56:05.153Z,97.61
2022-11-18T01:57:05.145Z,98.07
2022-11-18T01:58:05.186Z,97.77
2022-11-18T01:59:05.170Z,97.66
2022-11-18T02:00:05.239Z,97.91
2022-11-18T02:01:05.185Z,97.91
2022-11-18T02:02:05.207Z,98.94
2022-11-18T02:03:05.151Z,98.02
2022-11-18T02:04:05.120Z,98.33
2022-11-18T02:05:05.111Z,98.90
2022-11-18T02:06:05.119Z,99.00
2022-11-18T02:07:05.140Z,99.21
2022-11-18T02:08:05.136Z,98.69
2022-11-18T02:09:05.105Z,98.69
2022-11-18T02:10:05.125Z,98.85
2022-11-18T02:11:05.101Z,98.33
2022-11-18T02:12:06.187Z,98.65
2022-11-18T02:13:05.096Z,97.82
2022-11-18T02:14:05.116Z,97.72
2022-11-18T02:15:05.089Z,97.62
2022-11-18T02:16:05.075Z,97.82
2022-11-18T02:17:05.074Z,98.13
2022-11-18T02:18:05.060Z,97.62
2022-11-18T02:19:05.092Z,97.10
2022-11-18T02:20:05.059Z,97.20
2022-11-18T02:21:05.053Z,96.80
2022-11-18T02:22:05.099Z,97.16
2022-11-18T02:23:05.075Z,97.20
2022-11-18T02:24:05.076Z,96.80
2022-11-18T02:25:05.163Z,97.10
2022-11-18T02:26:05.059Z,96.80
2022-11-18T02:27:05.026Z,96.22
2022-11-18T02:28:05.016Z,97.00
2022-11-18T02:29:05.013Z,96.53
2022-11-18T02:30:05.018Z,96.59
2022-11-18T02:31:05.021Z,96.80
2022-11-18T02:32:05.088Z,96.69
2022-11-18T02:33:04.995Z,96.64
2022-11-18T02:34:04.982Z,96.73
2022-11-18T02:35:05.051Z,97.05
2022-11-18T02:36:05.012Z,96.64
2022-11-18T02:37:04.972Z,96.59
2022-11-18T02:38:04.988Z,96.59
2022-11-18T02:39:04.964Z,96.73
2022-11-18T02:40:04.956Z,96.64
2022-11-18T02:41:04.978Z,96.69
2022-11-18T02:42:04.975Z,96.69
2022-11-18T02:43:04.945Z,96.69
2022-11-18T02:44:04.938Z,96.59
2022-11-18T02:45:04.938Z,96.59
2022-11-18T02:46:04.944Z,96.59
2022-11-18T02:47:04.938Z,97.00
2022-11-18T02:48:05.945Z,97.00
2022-11-18T02:49:04.917Z,97.00
2022-11-18T02:50:04.972Z,96.80
2022-11-18T02:51:04.914Z,96.59
2022-11-18T02:52:04.913Z,96.69
2022-11-18T02:53:04.926Z,96.53
2022-11-18T02:54:04.904Z,96.69
2022-11-18T02:55:04.916Z,96.73
2022-11-18T02:56:04.879Z,97.15
2022-11-18T02:57:04.875Z,97.15
2022-11-18T02:58:04.870Z,97.66
2022-11-18T02:59:04.884Z,97.36
2022-11-18T03:00:04.873Z,97.81
2022-11-18T03:01:04.946Z,98.94
2022-11-18T03:02:04.866Z,98.74
2022-11-18T03:03:04.856Z,98.33
2022-11-18T03:04:04.892Z,98.49
2022-11-18T03:05:04.944Z,98.74
2022-11-18T03:06:04.851Z,98.84
2022-11-18T03:07:04.875Z,99.30
2022-11-18T03:08:05.853Z,99.77
2022-11-18T03:09:04.863Z,99.46
2022-11-18T03:10:04.829Z,99.35
2022-11-18T03:11:04.818Z,99.51
2022-11-18T03:12:04.820Z,99.62
2022-11-18T03:13:04.822Z,99.00
2022-11-18T03:14:04.841Z,99.72
2022-11-18T03:15:04.840Z,98.79
2022-11-18T03:16:04.820Z,99.00
2022-11-18T03:17:04.905Z,98.69
2022-11-18T03:18:04.806Z,98.79
2022-11-18T03:19:04.782Z,98.49
2022-11-18T03:20:04.776Z,98.38
2022-11-18T03:21:04.772Z,98.02
2022-11-18T03:22:04.776Z,98.74
2022-11-18T03:23:05.843Z,98.94
2022-11-18T03:24:04.781Z,98.63
2022-11-18T03:25:04.881Z,98.53
2022-11-18T03:26:04.762Z,98.84
2022-11-18T03:27:04.787Z,99.40
2022-11-18T03:28:04.799Z,99.99
2022-11-18T03:29:04.755Z,99.71
2022-11-18T03:30:04.737Z,99.99
2022-11-18T03:31:04.754Z,99.99
2022-11-18T03:32:04.728Z,99.40
2022-11-18T03:33:04.690Z,99.66
2022-11-18T03:34:04.731Z,99.66
2022-11-18T03:35:04.737Z,99.97
2022-11-18T03:36:04.747Z,99.66
2022-11-18T03:37:10.047Z,99.77
2022-11-18T03:38:06.689Z,99.35
2022-11-18T03:39:04.692Z,99.51
2022-11-18T03:40:04.679Z,99.66
2022-11-18T03:41:04.693Z,99.21
2022-11-18T03:42:04.697Z,99.21
2022-11-18T03:43:04.690Z,98.69
2022-11-18T03:44:04.657Z,98.38
2022-11-18T03:45:04.748Z,98.49
2022-11-18T03:46:04.661Z,97.91
2022-11-18T03:47:04.670Z,98.59
2022-11-18T03:48:04.664Z,97.77
2022-11-18T03:49:04.643Z,98.43
2022-11-18T03:50:04.626Z,97.97
2022-11-18T03:51:04.640Z,97.87
2022-11-18T03:52:04.624Z,97.87
2022-11-18T03:53:04.793Z,97.97
2022-11-18T03:54:04.618Z,97.77
2022-11-18T03:55:04.631Z,97.87
2022-11-18T03:56:04.621Z,97.87
2022-11-18T03:57:04.600Z,97.97
2022-11-18T03:58:04.601Z,97.97
2022-11-18T03:59:04.649Z,98.07
2022-11-18T04:00:04.633Z,98.07
2022-11-18T04:01:04.589Z,98.07
2022-11-18T04:02:04.734Z,97.82
2022-11-18T04:03:04.585Z,97.05
2022-11-18T04:04:04.571Z,97.15
2022-11-18T04:05:04.595Z,97.05
2022-11-18T04:06:04.578Z,96.94
2022-11-18T04:07:04.627Z,97.25
2022-11-18T04:08:04.587Z,97.05
2022-11-18T04:09:04.571Z,96.94
2022-11-18T04:10:05.579Z,97.05
2022-11-18T04:11:04.609Z,97.15
2022-11-18T04:12:04.572Z,97.15
2022-11-18T04:13:06.398Z,97.25
2022-11-18T04:14:05.543Z,97.25
2022-11-18T04:15:04.533Z,97.15
2022-11-18T04:16:04.640Z,97.25
2022-11-18T04:17:04.544Z,97.45
2022-11-18T04:18:04.504Z,97.45
2022-11-18T04:19:17.770Z,97.25
2022-11-18T04:20:06.518Z,97.41
2022-11-18T04:21:04.516Z,97.45
2022-11-18T04:22:04.525Z,97.10
2022-11-18T04:23:04.489Z,96.64
2022-11-18T04:24:04.482Z,97.19
2022-11-18T04:25:04.482Z,97.50
2022-11-18T04:26:04.506Z,97.81
2022-11-18T04:27:04.481Z,98.33
2022-11-18T04:28:04.512Z,99.25
2022-11-18T04:29:04.514Z,98.99
2022-11-18T04:30:04.535Z,98.84
2022-11-18T04:31:04.459Z,98.53
2022-11-18T04:32:04.442Z,98.94
2022-11-18T04:33:04.439Z,98.94
2022-11-18T04:34:04.490Z,99.05
2022-11-18T04:35:04.484Z,99.15
2022-11-18T04:36:04.466Z,99.15
2022-11-18T04:37:04.463Z,98.94
2022-11-18T04:38:05.125Z,98.69
2022-11-18T04:39:05.466Z,99.51
2022-11-18T04:40:04.462Z,98.59
2022-11-18T04:41:04.419Z,98.79
2022-11-18T04:42:04.415Z,98.96
2022-11-18T04:43:04.477Z,98.79
2022-11-18T04:44:04.434Z,99.00
2022-11-18T04:45:04.426Z,98.79
2022-11-18T04:46:04.409Z,98.59
2022-11-18T04:47:04.405Z,98.79
2022-11-18T04:48:04.380Z,98.33
2022-11-18T04:49:04.378Z,98.49
2022-11-18T04:50:04.393Z,98.65
2022-11-18T04:51:04.376Z,97.92
2022-11-18T04:52:04.356Z,97.97
2022-11-18T04:53:04.353Z,97.66
2022-11-18T04:54:04.352Z,97.82
2022-11-18T04:55:04.356Z,98.07
2022-11-18T04:56:04.330Z,97.97
2022-11-18T04:57:04.348Z,97.87
2022-11-18T04:58:04.319Z,97.52
2022-11-18T04:59:04.318Z,97.82
2022-11-18T05:00:04.348Z,97.52
2022-11-18T05:01:04.352Z,97.92
2022-11-18T05:02:04.311Z,97.72
2022-11-18T05:03:04.310Z,97.52
2022-11-18T05:04:04.349Z,97.78
2022-11-18T05:05:04.326Z,97.82
2022-11-18T05:06:04.284Z,97.52
2022-11-18T05:07:04.388Z,97.67
2022-11-18T05:08:04.330Z,97.82
2022-11-18T05:09:04.284Z,98.03
2022-11-18T05:10:04.270Z,98.28
2022-11-18T05:11:04.265Z,98.24
2022-11-18T05:12:04.335Z,98.03
2022-11-18T05:13:04.274Z,97.62
2022-11-18T05:14:04.276Z,97.72
2022-11-18T05:15:04.286Z,97.52
2022-11-18T05:16:04.274Z,97.78
2022-11-18T05:17:04.242Z,97.82
2022-11-18T05:18:04.243Z,97.82
2022-11-18T05:19:04.223Z,97.67
2022-11-18T05:20:04.240Z,97.82
2022-11-18T05:21:04.224Z,97.82
2022-11-18T05:22:04.198Z,97.67
2022-11-18T05:23:04.227Z,97.67
2022-11-18T05:24:04.205Z,97.62
2022-11-18T05:25:04.269Z,97.67
2022-11-18T05:26:04.182Z,97.67
2022-11-18T05:27:04.197Z,97.52
2022-11-18T05:28:04.247Z,97.82
2022-11-18T05:29:04.185Z,97.62
2022-11-18T05:30:04.245Z,97.72
2022-11-18T05:31:04.160Z,97.82
2022-11-18T05:32:04.183Z,97.99
2022-11-18T05:33:04.367Z,97.72
2022-11-18T05:34:04.164Z,98.49
2022-11-18T05:35:04.193Z,98.79
2022-11-18T05:36:04.194Z,98.90
2022-11-18T05:37:04.139Z,99.21
2022-11-18T05:38:04.146Z,99.00
2022-11-18T05:39:05.147Z,99.00
2022-11-18T05:40:04.156Z,99.05
2022-11-18T05:41:04.149Z,98.90
2022-11-18T05:42:04.114Z,99.66
2022-11-18T05:43:04.115Z,99.72
2022-11-18T05:44:04.100Z,99.25
2022-11-18T05:45:04.149Z,99.41
2022-11-18T05:46:04.115Z,99.66
2022-11-18T05:47:04.147Z,99.97
2022-11-18T05:48:04.103Z,99.99
2022-11-18T05:49:04.111Z,99.99
2022-11-18T05:50:04.108Z,99.99
2022-11-18T05:51:04.103Z,99.93
2022-11-18T05:52:04.078Z,99.99
2022-11-18T05:53:04.075Z,99.99
2022-11-18T05:54:04.080Z,99.77
2022-11-18T05:55:04.068Z,99.98
2022-11-18T05:56:04.067Z,99.98
2022-11-18T05:57:04.024Z,99.37
2022-11-18T05:58:04.031Z,99.72
2022-11-18T05:59:04.032Z,99.67
2022-11-18T06:00:04.033Z,99.62
2022-11-18T06:01:04.062Z,99.72
2022-11-18T06:02:04.036Z,99.51
2022-11-18T06:03:04.123Z,99.57
2022-11-18T06:04:04.007Z,99.51
2022-11-18T06:05:04.036Z,99.51
2022-11-18T06:06:04.025Z,99.93
2022-11-18T06:07:04.053Z,99.99
2022-11-18T06:08:04.017Z,99.99
2022-11-18T06:09:03.998Z,99.99
2022-11-18T06:10:06.018Z,99.99
2022-11-18T06:11:04.984Z,99.99
2022-11-18T06:12:03.977Z,99.99
2022-11-18T06:13:04.010Z,99.99
2022-11-18T06:14:03.979Z,99.99
2022-11-18T06:15:04.002Z,99.99
2022-11-18T06:16:03.955Z,99.99
2022-11-18T06:17:03.958Z,99.99
2022-11-18T06:18:03.968Z,99.99
2022-11-18T06:19:03.951Z,99.99
2022-11-18T06:20:03.962Z,99.99
2022-11-18T06:21:03.927Z,99.99
2022-11-18T06:22:03.920Z,99.99
2022-11-18T06:23:03.924Z,99.99
2022-11-18T06:24:03.938Z,99.99
2022-11-18T06:25:04.026Z,99.99
2022-11-18T06:26:03.934Z,99.99
2022-11-18T06:27:03.908Z,99.99
2022-11-18T06:28:03.924Z,99.99
2022-11-18T06:29:03.887Z,99.99
2022-11-18T06:30:03.893Z,99.77
2022-11-18T06:31:03.890Z,99.21
2022-11-18T06:32:03.886Z,99.52
2022-11-18T06:33:03.854Z,99.42
2022-11-18T06:34:04.034Z,99.26
2022-11-18T06:35:03.902Z,98.91
2022-11-18T06:36:03.842Z,98.60
2022-11-18T06:37:03.834Z,98.91
2022-11-18T06:38:04.887Z,99.11
2022-11-18T06:39:03.866Z,98.91
2022-11-18T06:40:03.823Z,98.70
2022-11-18T06:41:03.835Z,98.24
2022-11-18T06:42:03.914Z,99.05
2022-11-18T06:43:03.840Z,98.85
2022-11-18T06:44:03.822Z,99.37
2022-11-18T06:45:03.851Z,99.67
2022-11-18T06:46:08.847Z,99.57
2022-11-18T06:47:05.798Z,99.57
2022-11-18T06:48:03.823Z,99.51
2022-11-18T06:49:03.824Z,99.57
2022-11-18T06:50:03.825Z,99.99
2022-11-18T06:51:03.790Z,99.99
2022-11-18T06:52:03.780Z,99.99
2022-11-18T06:53:03.805Z,99.99
2022-11-18T06:54:09.216Z,99.99
2022-11-18T06:55:05.845Z,99.99
2022-11-18T06:56:03.762Z,99.93
2022-11-18T06:57:03.760Z,99.99
2022-11-18T06:58:03.752Z,99.99
2022-11-18T06:59:03.767Z,99.99
2022-11-18T07:00:03.780Z,99.99
2022-11-18T07:01:03.847Z,99.99
2022-11-18T07:02:03.724Z,99.99
2022-11-18T07:03:03.824Z,99.99
2022-11-18T07:04:03.796Z,99.99
2022-11-18T07:05:03.722Z,99.99
2022-11-18T07:06:03.766Z,99.99
2022-11-18T07:07:03.810Z,99.99
2022-11-18T07:08:03.759Z,99.99
2022-11-18T07:09:03.732Z,99.93
2022-11-18T07:10:03.763Z,99.99
2022-11-18T07:11:03.679Z,99.99
2022-11-18T07:12:03.687Z,99.63
2022-11-18T07:13:03.672Z,99.32
2022-11-18T07:14:03.690Z,99.52
2022-11-18T07:15:03.720Z,98.76
2022-11-18T07:16:03.672Z,98.55
2022-11-18T07:17:03.650Z,99.17
2022-11-18T07:18:03.678Z,98.45
2022-11-18T07:19:03.714Z,98.50
2022-11-18T07:20:03.682Z,98.86
2022-11-18T07:21:03.657Z,98.76
2022-11-18T07:22:03.637Z,98.14
2022-11-18T07:23:03.701Z,98.35
2022-11-18T07:24:03.708Z,98.51
2022-11-18T07:25:03.649Z,97.73
2022-11-18T07:26:04.643Z,97.73
2022-11-18T07:27:03.615Z,97.63
2022-11-18T07:28:03.624Z,97.48
2022-11-18T07:29:03.597Z,97.58
2022-11-18T07:30:03.603Z,97.99
2022-11-18T07:31:03.606Z,97.89
2022-11-18T07:32:03.585Z,97.58
2022-11-18T07:33:03.596Z,97.28
2022-11-18T07:34:03.600Z,97.17
2022-11-18T07:35:03.607Z,96.77
2022-11-18T07:36:03.633Z,96.45
2022-11-18T07:37:03.673Z,96.92
2022-11-18T07:38:03.567Z,96.92
2022-11-18T07:39:03.556Z,96.82
2022-11-18T07:40:03.558Z,96.92
2022-11-18T07:41:03.574Z,96.41
2022-11-18T07:42:03.574Z,96.92
2022-11-18T07:43:03.565Z,96.41
2022-11-18T07:44:03.541Z,96.57
2022-11-18T07:45:03.547Z,96.37
2022-11-18T07:46:03.538Z,96.47
2022-11-18T07:47:03.564Z,96.78
2022-11-18T07:48:03.505Z,96.20
2022-11-18T07:49:03.553Z,96.20
2022-11-18T07:50:03.532Z,95.59
2022-11-18T07:51:03.544Z,95.07
2022-11-18T07:52:03.494Z,95.49
2022-11-18T07:53:03.551Z,95.84
2022-11-18T07:54:03.521Z,96.04
2022-11-18T07:55:03.504Z,96.04
2022-11-18T07:56:03.493Z,95.84
2022-11-18T07:57:03.568Z,96.19
2022-11-18T07:58:03.503Z,96.81
2022-11-18T07:59:03.567Z,96.91
2022-11-18T08:00:03.552Z,96.91
2022-11-18T08:01:03.488Z,96.81
2022-11-18T08:02:03.551Z,96.70
2022-11-18T08:03:03.491Z,96.70
2022-11-18T08:04:03.468Z,96.45
2022-11-18T08:05:03.493Z,96.60
2022-11-18T08:06:03.487Z,96.70
2022-11-18T08:07:03.480Z,96.60
2022-11-18T08:08:03.453Z,97.12
2022-11-18T08:09:03.436Z,96.70
2022-11-18T08:10:03.455Z,97.02
2022-11-18T08:11:03.441Z,97.02
2022-11-18T08:12:03.413Z,96.97
2022-11-18T08:13:03.394Z,97.63
2022-11-18T08:14:03.390Z,97.42
2022-11-18T08:15:03.408Z,97.28
2022-11-18T08:16:03.421Z,97.28
2022-11-18T08:17:03.434Z,96.87
2022-11-18T08:18:03.388Z,96.87
2022-11-18T08:19:03.399Z,96.87
2022-11-18T08:20:03.385Z,96.56
2022-11-18T08:21:03.391Z,96.72
2022-11-18T08:22:03.356Z,96.00
2022-11-18T08:23:03.370Z,96.20
2022-11-18T08:24:03.388Z,96.51
2022-11-18T08:25:03.342Z,96.31
2022-11-18T08:26:04.383Z,96.41
2022-11-18T08:27:03.370Z,96.06
2022-11-18T08:28:03.350Z,95.24
2022-11-18T08:29:03.333Z,95.49
2022-11-18T08:30:03.329Z,95.65
2022-11-18T08:31:03.331Z,95.54
2022-11-18T08:32:03.335Z,94.93
2022-11-18T08:33:03.314Z,95.09
2022-11-18T08:34:03.345Z,95.14
2022-11-18T08:35:08.056Z,94.62
2022-11-18T08:36:05.290Z,94.62
2022-11-18T08:37:03.381Z,94.78
2022-11-18T08:38:03.287Z,94.62
2022-11-18T08:39:03.285Z,93.76
2022-11-18T08:40:03.271Z,93.90
2022-11-18T08:41:03.298Z,94.37
2022-11-18T08:42:03.369Z,93.96
2022-11-18T08:43:03.258Z,93.70
2022-11-18T08:44:03.258Z,93.76
2022-11-18T08:45:03.261Z,94.62
2022-11-18T08:46:03.290Z,94.21
2022-11-18T08:47:03.249Z,94.11
2022-11-18T08:48:03.218Z,94.58
2022-11-18T08:49:03.291Z,94.52
2022-11-18T08:50:03.328Z,94.62
2022-11-18T08:51:03.207Z,94.42
2022-11-18T08:52:03.235Z,94.62
2022-11-18T08:53:03.289Z,94.32
2022-11-18T08:54:03.274Z,94.58
2022-11-18T08:55:03.297Z,93.86
2022-11-18T08:56:03.240Z,94.37
2022-11-18T08:57:03.187Z,93.92
2022-11-18T08:58:03.199Z,93.71
2022-11-18T08:59:03.226Z,93.20
2022-11-18T09:00:03.168Z,93.51
2022-11-18T09:01:03.256Z,93.37
2022-11-18T09:02:03.254Z,93.26
2022-11-18T09:03:03.165Z,93.26
2022-11-18T09:04:03.165Z,92.55
2022-11-18T09:05:03.177Z,91.83
2022-11-18T09:06:03.166Z,91.93
2022-11-18T09:07:03.248Z,92.24
2022-11-18T09:08:03.129Z,92.55
2022-11-18T09:09:06.366Z,92.18
2022-11-18T09:10:04.160Z,92.28
2022-11-18T09:11:03.161Z,93.00
2022-11-18T09:12:03.105Z,93.30
2022-11-18T09:13:32.786Z,93.82
2022-11-18T09:15:14.175Z,93.71
2022-11-18T09:16:05.144Z,93.51
2022-11-18T09:17:03.117Z,93.71
2022-11-18T09:18:03.094Z,93.16
2022-11-18T09:20:05.093Z,93.26
2022-11-18T09:21:03.198Z,92.55
2022-11-18T09:22:03.097Z,92.14
2022-11-18T09:23:03.148Z,92.14
2022-11-18T09:24:03.047Z,92.14
2022-11-18T09:25:03.046Z,91.83
2022-11-18T09:26:03.084Z,92.14
2022-11-18T09:27:03.059Z,91.93
2022-11-18T09:28:03.066Z,92.03
2022-11-18T09:29:03.170Z,91.99
2022-11-18T09:30:03.035Z,91.89
2022-11-18T09:31:03.038Z,91.89
2022-11-18T09:32:03.027Z,91.69
2022-11-18T09:33:03.009Z,90.45
2022-11-18T09:34:03.007Z,91.01
2022-11-18T09:35:04.034Z,91.58
2022-11-18T09:36:03.026Z,91.89
2022-11-18T09:37:02.990Z,91.58
2022-11-18T09:38:02.996Z,91.48
2022-11-18T09:39:02.995Z,91.78
2022-11-18T09:40:03.006Z,91.64
2022-11-18T09:41:02.968Z,91.54
2022-11-18T09:42:03.063Z,91.03
2022-11-18T09:43:03.032Z,90.62
2022-11-18T09:44:02.952Z,91.13
2022-11-18T09:45:03.909Z,90.47
2022-11-18T09:46:02.948Z,90.68
2022-11-18T09:47:02.966Z,90.78
2022-11-18T09:48:02.936Z,90.78
2022-11-18T09:49:02.965Z,89.04
2022-11-18T09:50:15.192Z,89.29
2022-11-18T09:51:05.263Z,88.98
2022-11-18T09:52:02.920Z,89.15
2022-11-18T09:53:02.927Z,89.09
2022-11-18T09:54:02.902Z,88.98
2022-11-18T09:55:02.909Z,88.53
2022-11-18T09:56:03.209Z,88.84
2022-11-18T09:57:02.881Z,89.39
2022-11-18T09:58:02.888Z,88.94
2022-11-18T09:59:02.869Z,89.35
2022-11-18T10:00:02.998Z,89.20
2022-11-18T10:01:02.878Z,88.33
2022-11-18T10:02:02.932Z,88.53
2022-11-18T10:03:02.978Z,88.33
2022-11-18T10:04:02.910Z,88.74
2022-11-18T10:05:02.980Z,88.57
2022-11-18T10:06:02.986Z,88.06
2022-11-18T10:07:02.923Z,88.64
2022-11-18T10:08:02.886Z,89.09
2022-11-18T10:09:02.992Z,88.94
2022-11-18T10:10:03.049Z,89.04
2022-11-18T10:11:02.889Z,89.45
2022-11-18T10:12:02.926Z,89.04
2022-11-18T10:13:02.980Z,89.04
2022-11-18T10:14:02.862Z,88.37
2022-11-18T10:15:02.949Z,88.17
2022-11-18T10:16:02.797Z,88.26
2022-11-18T10:17:02.752Z,88.98
2022-11-18T10:18:02.747Z,89.18
2022-11-18T10:19:02.798Z,89.53
2022-11-18T10:20:02.894Z,90.30
2022-11-18T10:21:02.805Z,90.30
2022-11-18T10:22:02.752Z,90.60
2022-11-18T10:23:02.750Z,91.22
2022-11-18T10:24:02.731Z,90.84
2022-11-18T10:25:02.724Z,90.54
2022-11-18T10:26:02.723Z,90.60
2022-11-18T10:27:02.722Z,91.11
2022-11-18T10:28:02.727Z,90.36
2022-11-18T10:29:02.779Z,89.74
2022-11-18T10:30:02.691Z,89.18
2022-11-18T10:31:02.687Z,89.29
2022-11-18T10:32:04.322Z,89.50
2022-11-18T10:33:03.726Z,89.70
2022-11-18T10:34:02.694Z,88.84
2022-11-18T10:35:02.643Z,88.43
2022-11-18T10:36:02.653Z,87.82
2022-11-18T10:37:02.621Z,87.20
2022-11-18T10:38:09.948Z,87.10
2022-11-18T10:39:04.645Z,87.45
2022-11-18T10:40:02.621Z,89.29
2022-11-18T10:41:02.641Z,86.98
2022-11-18T10:42:02.646Z,88.65
2022-11-18T10:43:02.646Z,89.58
2022-11-18T10:44:04.034Z,89.47
2022-11-18T10:45:02.626Z,90.66
2022-11-18T10:46:02.609Z,90.15
2022-11-18T10:47:02.617Z,89.03
2022-11-18T10:48:02.625Z,88.31
2022-11-18T10:49:02.575Z,89.18
2022-11-18T10:50:02.613Z,89.35
2022-11-18T10:51:02.553Z,89.20
2022-11-18T10:52:02.554Z,88.70
2022-11-18T10:53:02.567Z,88.53
2022-11-18T10:54:02.560Z,88.53
2022-11-18T10:55:02.569Z,88.02
2022-11-18T10:56:02.545Z,87.88
2022-11-18T10:57:02.546Z,86.22
2022-11-18T10:58:02.521Z,87.76
2022-11-18T10:59:02.528Z,87.76
2022-11-18T11:00:02.568Z,88.57
2022-11-18T11:01:02.545Z,89.33
2022-11-18T11:02:08.379Z,88.62
2022-11-18T11:03:04.498Z,88.82
2022-11-18T11:04:02.495Z,89.94
2022-11-18T11:05:02.497Z,89.23
2022-11-18T11:06:02.496Z,89.43
2022-11-18T11:07:02.532Z,88.62
2022-11-18T11:08:28.982Z,89.09
2022-11-18T11:09:04.459Z,88.41
2022-11-18T11:10:02.450Z,88.47
2022-11-18T11:11:02.440Z,87.70
2022-11-18T11:12:02.449Z,87.08
2022-11-18T11:13:03.451Z,86.98
2022-11-18T11:14:02.420Z,87.38
2022-11-18T11:15:02.406Z,88.04
2022-11-18T11:16:02.405Z,87.59
2022-11-18T11:17:02.533Z,87.43
2022-11-18T11:18:02.394Z,89.06
2022-11-18T11:19:02.396Z,88.96
2022-11-18T11:20:02.416Z,88.45
2022-11-18T11:21:02.365Z,89.68
2022-11-18T11:22:02.389Z,89.68
2022-11-18T11:23:02.419Z,89.37
2022-11-18T11:24:02.357Z,89.53
2022-11-18T11:25:02.357Z,89.68
2022-11-18T11:29:04.321Z,90.95
2022-11-18T11:30:02.340Z,91.26
2022-11-18T11:31:02.332Z,91.36
2022-11-18T11:32:02.316Z,91.87
2022-11-18T11:33:02.349Z,91.16
2022-11-18T11:34:02.891Z,91.36
2022-11-18T11:35:02.290Z,90.44
2022-11-18T11:36:02.265Z,91.05
2022-11-18T11:37:02.291Z,90.34
2022-11-18T11:38:02.287Z,90.70
2022-11-18T11:39:04.827Z,90.95
2022-11-18T11:40:04.254Z,90.70
2022-11-18T11:41:02.249Z,91.22
2022-11-18T11:42:02.246Z,90.70
2022-11-18T11:43:02.260Z,90.70
2022-11-18T11:44:02.224Z,91.93
2022-11-18T11:45:03.247Z,91.01
2022-11-18T11:46:02.223Z,91.11
2022-11-18T11:47:02.193Z,91.63
2022-11-18T11:48:02.240Z,90.50
2022-11-18T11:49:02.233Z,89.98
2022-11-18T11:50:02.180Z,90.91
2022-11-18T11:51:04.688Z,90.60
2022-11-18T11:52:03.187Z,89.78
2022-11-18T11:53:02.169Z,89.98
2022-11-18T11:54:02.207Z,90.70
2022-11-18T11:55:02.894Z,91.31
2022-11-18T11:56:02.231Z,91.42
2022-11-18T11:57:02.153Z,90.19
2022-11-18T11:58:02.159Z,90.91
2022-11-18T11:59:02.179Z,91.73
2022-11-18T12:00:02.204Z,91.22
2022-11-18T12:01:02.124Z,90.95
2022-11-18T12:02:02.138Z,90.48
2022-11-18T12:03:02.192Z,91.26
2022-11-18T12:04:02.109Z,91.56
2022-11-18T12:05:02.130Z,91.36
2022-11-18T12:06:02.105Z,91.46
2022-11-18T12:07:02.192Z,91.56
2022-11-18T12:08:02.280Z,91.46
2022-11-18T12:09:02.122Z,91.97
2022-11-18T12:10:02.076Z,91.77
2022-11-18T12:11:02.053Z,92.49
2022-11-18T12:12:02.076Z,92.79
2022-11-18T12:13:02.118Z,92.59
2022-11-18T12:14:02.031Z,92.90
2022-11-18T12:15:02.229Z,93.00
2022-11-18T12:16:02.030Z,93.45
2022-11-18T12:17:02.064Z,93.82
2022-11-18T12:18:02.035Z,93.30
2022-11-18T12:19:02.035Z,93.00
2022-11-18T12:20:02.019Z,92.90
2022-11-18T12:21:02.040Z,93.41
2022-11-18T12:22:02.039Z,92.49
2022-11-18T12:23:02.015Z,93.10
2022-11-18T12:24:01.976Z,93.41
2022-11-18T12:25:02.001Z,93.41
2022-11-18T12:26:01.998Z,93.41
2022-11-18T12:27:01.982Z,93.82
2022-11-18T12:28:01.979Z,93.77
2022-11-18T12:29:02.031Z,93.06
2022-11-18T12:30:02.034Z,93.16
2022-11-18T12:31:01.950Z,92.79
2022-11-18T12:32:01.958Z,93.92
2022-11-18T12:33:01.925Z,93.62
2022-11-18T12:34:01.927Z,93.67
2022-11-18T12:35:01.976Z,93.71
2022-11-18T12:36:01.927Z,93.71
2022-11-18T12:37:01.938Z,94.54
2022-11-18T12:38:02.050Z,94.84
2022-11-18T12:39:01.931Z,94.43
2022-11-18T12:40:02.010Z,93.71
2022-11-18T12:41:01.871Z,94.84
2022-11-18T12:42:01.924Z,95.29
2022-11-18T12:43:01.915Z,95.29
2022-11-18T12:44:01.922Z,95.50
2022-11-18T12:45:01.914Z,94.84
2022-11-18T12:46:01.872Z,95.05
2022-11-18T12:47:01.912Z,94.33
2022-11-18T12:48:01.875Z,95.05
2022-11-18T12:49:01.831Z,95.36
2022-11-18T12:50:01.828Z,95.46
2022-11-18T12:51:01.905Z,95.05
2022-11-18T12:52:01.812Z,94.64
2022-11-18T12:53:01.866Z,95.05
2022-11-18T12:54:02.325Z,95.66
2022-11-18T12:55:01.810Z,95.25
2022-11-18T12:56:01.878Z,95.66
2022-11-18T12:57:01.815Z,95.50
2022-11-18T12:58:01.781Z,96.22